createdAt,value
2017-08-06T00:02:15.246Z,89.49
2017-08-06T00:04:42.655Z,89.45
2017-08-06T00:07:10.051Z,89.15
2017-08-06T00:09:37.480Z,89.50
2017-08-06T00:12:04.875Z,89.55
2017-08-06T00:14:32.275Z,89.39
2017-08-06T00:16:59.674Z,89.57
2017-08-06T00:19:27.080Z,89.68
2017-08-06T00:21:54.486Z,89.68
2017-08-06T00:24:22.079Z,89.80
2017-08-06T00:26:49.479Z,90.10
2017-08-06T00:29:16.893Z,90.31
2017-08-06T00:31:44.296Z,90.29
2017-08-06T00:34:11.703Z,90.29
2017-08-06T00:36:39.105Z,90.42
2017-08-06T00:39:06.507Z,90.28
2017-08-06T00:41:33.916Z,90.39
2017-08-06T00:44:01.312Z,90.31
2017-08-06T00:46:28.714Z,90.40
2017-08-06T00:48:56.118Z,90.36
2017-08-06T00:51:23.517Z,90.25
2017-08-06T00:53:50.932Z,90.22
2017-08-06T00:56:18.331Z,90.16
2017-08-06T00:58:45.794Z,90.02
2017-08-06T01:01:13.188Z,90.06
2017-08-06T01:03:40.587Z,90.44
2017-08-06T01:06:07.990Z,90.53
2017-08-06T01:08:35.396Z,90.43
2017-08-06T01:11:02.802Z,90.41
2017-08-06T01:13:30.212Z,90.08
2017-08-06T01:15:57.611Z,90.08
2017-08-06T01:18:25.007Z,89.96
2017-08-06T01:20:52.411Z,89.59
2017-08-06T01:23:19.835Z,89.90
2017-08-06T01:25:47.231Z,89.97
2017-08-06T01:28:14.643Z,89.56
2017-08-06T01:30:42.043Z,89.64
2017-08-06T01:33:09.447Z,89.72
2017-08-06T01:35:36.867Z,89.66
2017-08-06T01:38:04.267Z,89.31
2017-08-06T01:40:31.664Z,89.47
2017-08-06T01:42:59.075Z,89.60
2017-08-06T01:45:26.480Z,89.62
2017-08-06T01:47:53.887Z,89.66
2017-08-06T01:50:21.283Z,89.58
2017-08-06T01:52:48.684Z,89.58
2017-08-06T01:55:16.083Z,89.76
2017-08-06T01:57:43.479Z,89.65
2017-08-06T02:00:10.895Z,89.82
2017-08-06T02:02:38.307Z,90.12
2017-08-06T02:05:05.720Z,90.16
2017-08-06T02:07:33.135Z,90.17
2017-08-06T02:10:00.534Z,90.35
2017-08-06T02:12:27.947Z,90.54
2017-08-06T02:14:55.347Z,90.62
2017-08-06T02:17:22.743Z,90.47
2017-08-06T02:19:50.146Z,90.56
2017-08-06T02:22:17.547Z,90.34
2017-08-06T02:24:44.967Z,90.47
2017-08-06T02:27:12.371Z,90.49
2017-08-06T02:29:39.776Z,90.65
2017-08-06T02:32:07.190Z,90.49
2017-08-06T02:34:34.595Z,90.53
2017-08-06T02:37:02.144Z,90.58
2017-08-06T02:39:29.558Z,90.85
2017-08-06T02:41:56.963Z,90.96
2017-08-06T02:44:24.371Z,90.86
2017-08-06T02:46:51.772Z,90.62
2017-08-06T02:49:19.179Z,90.43
2017-08-06T02:51:46.575Z,90.25
2017-08-06T02:54:13.979Z,90.13
2017-08-06T02:56:41.387Z,90.09
2017-08-06T02:59:08.779Z,90.11
2017-08-06T03:01:36.219Z,90.10
2017-08-06T03:04:03.615Z,90.20
2017-08-06T03:06:31.011Z,90.22
2017-08-06T03:08:58.415Z,90.27
2017-08-06T03:11:25.820Z,90.11
2017-08-06T03:13:53.227Z,89.97
2017-08-06T03:16:20.627Z,89.75
2017-08-06T03:18:48.027Z,89.53
2017-08-06T03:21:15.436Z,88.63
2017-08-06T03:23:42.832Z,88.94
2017-08-06T03:26:10.247Z,88.59
2017-08-06T03:28:37.643Z,88.73
2017-08-06T03:31:05.044Z,88.97
2017-08-06T03:33:32.447Z,89.41
2017-08-06T03:35:59.847Z,89.59
2017-08-06T03:38:27.264Z,89.84
2017-08-06T03:40:54.655Z,89.64
2017-08-06T03:43:22.060Z,89.58
2017-08-06T03:45:49.476Z,89.59
2017-08-06T03:48:16.870Z,89.36
2017-08-06T03:50:44.268Z,89.29
2017-08-06T03:53:11.674Z,89.43
2017-08-06T03:55:39.082Z,89.34
2017-08-06T03:58:06.480Z,89.35
2017-08-06T04:00:33.895Z,89.30
2017-08-06T04:03:01.301Z,89.15
2017-08-06T04:05:29.324Z,88.76
2017-08-06T04:07:56.715Z,88.78
2017-08-06T04:10:24.113Z,88.63
2017-08-06T04:12:51.519Z,88.60
2017-08-06T04:15:18.925Z,88.62
2017-08-06T04:17:46.344Z,88.29
2017-08-06T04:20:13.735Z,88.20
2017-08-06T04:22:41.168Z,87.71
2017-08-06T04:25:08.603Z,87.53
2017-08-06T04:27:36.003Z,87.74
2017-08-06T04:30:03.419Z,87.53
2017-08-06T04:32:30.831Z,86.50
2017-08-06T04:34:58.227Z,86.56
2017-08-06T04:37:25.643Z,86.38
2017-08-06T04:39:53.044Z,86.52
2017-08-06T04:42:20.456Z,86.08
2017-08-06T04:44:47.860Z,85.98
2017-08-06T04:47:15.265Z,86.74
2017-08-06T04:49:42.671Z,87.24
2017-08-06T04:52:10.077Z,87.37
2017-08-06T04:54:37.496Z,87.60
2017-08-06T04:57:04.887Z,87.61
2017-08-06T04:59:32.287Z,87.61
2017-08-06T05:01:59.691Z,87.16
2017-08-06T05:04:27.106Z,86.93
2017-08-06T05:06:54.520Z,86.92
2017-08-06T05:09:21.923Z,86.25
2017-08-06T05:11:49.318Z,86.54
2017-08-06T05:14:16.727Z,86.91
2017-08-06T05:16:44.127Z,86.90
2017-08-06T05:19:11.535Z,86.19
2017-08-06T05:21:38.937Z,86.20
2017-08-06T05:24:06.340Z,86.59
2017-08-06T05:26:33.745Z,86.96
2017-08-06T05:29:01.139Z,87.32
2017-08-06T05:31:28.551Z,87.44
2017-08-06T05:33:55.951Z,86.51
2017-08-06T05:36:23.351Z,86.71
2017-08-06T05:38:50.759Z,86.45
2017-08-06T05:41:18.163Z,86.57
2017-08-06T05:43:45.575Z,86.50
2017-08-06T05:46:12.983Z,86.69
2017-08-06T05:48:40.374Z,86.63
2017-08-06T05:51:07.779Z,86.17
2017-08-06T05:53:35.177Z,85.75
2017-08-06T05:56:02.586Z,86.10
2017-08-06T05:58:29.988Z,85.03
2017-08-06T06:00:57.399Z,83.92
2017-08-06T06:03:24.815Z,83.97
2017-08-06T06:05:52.216Z,83.52
2017-08-06T06:08:19.628Z,84.49
2017-08-06T06:10:47.024Z,84.21
2017-08-06T06:13:14.433Z,85.25
2017-08-06T06:15:41.831Z,84.41
2017-08-06T06:18:09.250Z,84.72
2017-08-06T06:20:36.654Z,85.55
2017-08-06T06:23:04.059Z,83.37
2017-08-06T06:25:31.471Z,82.85
2017-08-06T06:27:58.859Z,84.02
2017-08-06T06:30:26.279Z,84.10
2017-08-06T06:32:53.954Z,84.35
2017-08-06T06:35:21.371Z,84.98
2017-08-06T06:37:48.791Z,85.13
2017-08-06T06:40:16.179Z,84.26
2017-08-06T06:42:43.627Z,83.29
2017-08-06T06:45:11.050Z,83.56
2017-08-06T06:47:38.450Z,82.35
2017-08-06T06:50:05.850Z,81.71
2017-08-06T06:52:33.287Z,81.19
2017-08-06T06:55:00.692Z,82.14
2017-08-06T06:57:28.143Z,82.67
2017-08-06T06:59:55.550Z,83.73
2017-08-06T07:02:23.019Z,83.02
2017-08-06T07:04:50.460Z,83.92
2017-08-06T07:07:17.855Z,84.44
2017-08-06T07:09:45.295Z,84.29
2017-08-06T07:12:12.752Z,84.67
2017-08-06T07:14:40.179Z,84.89
2017-08-06T07:17:07.676Z,85.34
2017-08-06T07:19:35.071Z,85.42
2017-08-06T07:22:02.476Z,85.48
2017-08-06T07:24:29.879Z,84.83
2017-08-06T07:26:57.300Z,84.17
2017-08-06T07:29:24.694Z,80.73
2017-08-06T07:31:52.104Z,79.14
2017-08-06T07:34:19.503Z,77.63
2017-08-06T07:36:46.903Z,79.61
2017-08-06T07:39:14.307Z,78.81
2017-08-06T07:41:41.751Z,77.10
2017-08-06T07:44:09.143Z,77.37
2017-08-06T07:46:36.546Z,77.83
2017-08-06T07:49:03.960Z,77.59
2017-08-06T07:51:31.364Z,75.75
2017-08-06T07:53:58.771Z,76.13
2017-08-06T07:56:26.168Z,74.55
2017-08-06T07:58:53.570Z,76.46
2017-08-06T08:01:20.975Z,74.29
2017-08-06T08:03:48.380Z,72.20
2017-08-06T08:06:15.803Z,73.69
2017-08-06T08:08:43.206Z,72.92
2017-08-06T08:11:10.603Z,72.29
2017-08-06T08:13:38.012Z,71.64
2017-08-06T08:16:05.424Z,70.90
2017-08-06T08:18:32.823Z,68.16
2017-08-06T08:21:00.219Z,69.02
2017-08-06T08:23:27.639Z,69.95
2017-08-06T08:25:55.039Z,70.39
2017-08-06T08:28:22.435Z,68.72
2017-08-06T08:30:49.848Z,69.46
2017-08-06T08:33:17.245Z,70.58
2017-08-06T08:35:44.646Z,70.17
2017-08-06T08:38:12.048Z,70.41
2017-08-06T08:40:39.679Z,68.82
2017-08-06T08:43:07.092Z,70.29
2017-08-06T08:45:34.486Z,74.67
2017-08-06T08:48:01.899Z,71.52
2017-08-06T08:50:29.287Z,67.55
2017-08-06T08:52:56.711Z,66.91
2017-08-06T08:55:24.115Z,67.80
2017-08-06T08:57:51.514Z,66.92
2017-08-06T09:00:18.924Z,64.97
2017-08-06T09:02:46.321Z,67.03
2017-08-06T09:05:13.727Z,63.87
2017-08-06T09:07:41.127Z,62.12
2017-08-06T09:10:08.530Z,60.24
2017-08-06T09:12:35.940Z,61.42
2017-08-06T09:15:03.343Z,60.83
2017-08-06T09:17:30.747Z,62.22
2017-08-06T09:19:58.144Z,62.75
2017-08-06T09:22:25.551Z,62.78
2017-08-06T09:24:52.957Z,61.52
2017-08-06T09:27:20.355Z,63.83
2017-08-06T09:29:47.756Z,59.24
2017-08-06T09:32:15.160Z,59.71
2017-08-06T09:34:42.567Z,55.06
2017-08-06T09:37:09.966Z,55.17
2017-08-06T09:39:37.363Z,52.76
2017-08-06T09:42:04.755Z,54.54
2017-08-06T09:44:32.163Z,55.53
2017-08-06T09:46:59.564Z,56.20
2017-08-06T09:49:26.955Z,54.43
2017-08-06T09:51:54.378Z,54.72
2017-08-06T09:54:21.753Z,54.08
2017-08-06T09:56:49.155Z,53.80
2017-08-06T09:59:16.555Z,53.85
2017-08-06T10:01:43.953Z,54.21
2017-08-06T10:04:11.347Z,56.14
2017-08-06T10:06:38.752Z,55.38
2017-08-06T10:09:06.147Z,55.77
2017-08-06T10:11:33.551Z,50.86
2017-08-06T10:14:00.966Z,54.68
2017-08-06T10:16:28.362Z,48.50
2017-08-06T10:18:55.769Z,45.73
2017-08-06T10:21:23.166Z,50.28
2017-08-06T10:23:50.583Z,46.34
2017-08-06T10:26:17.979Z,45.31
2017-08-06T10:28:45.379Z,52.27
2017-08-06T10:31:12.782Z,44.66
2017-08-06T10:33:40.191Z,41.76
2017-08-06T10:36:07.598Z,43.12
2017-08-06T10:38:35.007Z,44.47
2017-08-06T10:41:02.396Z,43.73
2017-08-06T10:43:29.814Z,44.24
2017-08-06T10:45:57.223Z,43.05
2017-08-06T10:48:24.633Z,40.39
2017-08-06T10:50:52.032Z,41.42
2017-08-06T10:53:19.453Z,42.27
2017-08-06T10:55:46.843Z,38.98
2017-08-06T10:58:14.247Z,40.45
2017-08-06T11:00:41.650Z,40.16
2017-08-06T11:03:09.053Z,39.61
2017-08-06T11:05:36.456Z,39.50
2017-08-06T11:08:03.851Z,40.89
2017-08-06T11:10:31.268Z,40.67
2017-08-06T11:12:58.664Z,39.46
2017-08-06T11:15:26.069Z,39.55
2017-08-06T11:17:53.477Z,36.65
2017-08-06T11:20:20.876Z,38.30
2017-08-06T11:22:48.290Z,37.22
2017-08-06T11:25:15.691Z,39.91
2017-08-06T11:27:43.091Z,39.61
2017-08-06T11:30:10.495Z,37.57
2017-08-06T11:32:37.900Z,38.90
2017-08-06T11:35:05.310Z,41.28
2017-08-06T11:37:32.708Z,44.56
2017-08-06T11:40:00.115Z,44.88
2017-08-06T11:42:27.523Z,40.48
2017-08-06T11:44:54.927Z,39.97
2017-08-06T11:47:22.331Z,38.84
2017-08-06T11:49:49.739Z,40.11
2017-08-06T11:52:17.151Z,36.20
2017-08-06T11:54:44.552Z,40.13
2017-08-06T11:57:11.947Z,40.29
2017-08-06T11:59:39.351Z,39.33
2017-08-06T12:02:06.748Z,39.66
2017-08-06T12:04:34.159Z,39.78
2017-08-06T12:07:01.561Z,37.63
2017-08-06T12:09:28.966Z,41.81
2017-08-06T12:11:56.363Z,41.41
2017-08-06T12:14:23.774Z,42.38
2017-08-06T12:16:52.008Z,44.73
2017-08-06T12:19:19.411Z,45.01
2017-08-06T12:21:46.809Z,44.78
2017-08-06T12:24:14.216Z,43.07
2017-08-06T12:26:41.619Z,41.47
2017-08-06T12:29:09.028Z,41.14
2017-08-06T12:31:36.436Z,40.69
2017-08-06T12:34:03.839Z,42.03
2017-08-06T12:36:31.242Z,40.39
2017-08-06T12:38:58.654Z,40.60
2017-08-06T12:41:26.046Z,41.65
2017-08-06T12:43:53.459Z,41.66
2017-08-06T12:46:20.855Z,41.60
2017-08-06T12:48:48.272Z,43.22
2017-08-06T12:51:15.671Z,43.13
2017-08-06T12:53:43.071Z,43.30
2017-08-06T12:56:10.480Z,43.72
2017-08-06T12:58:37.880Z,43.64
2017-08-06T13:01:05.284Z,41.03
2017-08-06T13:03:32.702Z,41.54
2017-08-06T13:06:00.094Z,36.16
2017-08-06T13:08:27.503Z,39.73
2017-08-06T13:10:54.903Z,38.27
2017-08-06T13:13:22.314Z,37.98
2017-08-06T13:15:49.714Z,37.59
2017-08-06T13:18:17.116Z,38.54
2017-08-06T13:20:44.529Z,39.00
2017-08-06T13:23:11.940Z,38.77
2017-08-06T13:25:39.335Z,37.49
2017-08-06T13:28:06.751Z,37.01
2017-08-06T13:30:34.146Z,38.85
2017-08-06T13:33:01.556Z,36.93
2017-08-06T13:35:29.583Z,36.80
2017-08-06T13:37:56.976Z,37.89
2017-08-06T13:40:24.411Z,37.69
2017-08-06T13:42:51.808Z,37.54
2017-08-06T13:45:19.234Z,39.61
2017-08-06T13:47:46.631Z,39.67
2017-08-06T13:50:14.032Z,36.70
2017-08-06T13:52:41.442Z,36.38
2017-08-06T13:55:08.848Z,39.88
2017-08-06T13:57:36.254Z,41.76
2017-08-06T14:00:03.651Z,38.94
2017-08-06T14:02:31.056Z,39.10
2017-08-06T14:04:58.461Z,36.16
2017-08-06T14:07:25.868Z,36.21
2017-08-06T14:09:53.262Z,37.20
2017-08-06T14:12:20.663Z,35.71
2017-08-06T14:14:48.060Z,37.36
2017-08-06T14:17:15.500Z,37.70
2017-08-06T14:19:42.896Z,43.73
2017-08-06T14:22:10.296Z,39.56
2017-08-06T14:24:37.717Z,44.63
2017-08-06T14:27:05.120Z,38.45
2017-08-06T14:29:32.523Z,39.61
2017-08-06T14:31:59.949Z,39.59
2017-08-06T14:34:27.339Z,38.07
2017-08-06T14:36:54.743Z,37.64
2017-08-06T14:39:22.164Z,41.51
2017-08-06T14:41:49.568Z,40.00
2017-08-06T14:44:16.956Z,39.87
2017-08-06T14:46:44.392Z,42.72
2017-08-06T14:49:11.792Z,46.00
2017-08-06T14:51:39.196Z,42.66
2017-08-06T14:54:06.608Z,45.57
2017-08-06T14:56:34.000Z,42.15
2017-08-06T14:59:01.416Z,41.77
2017-08-06T15:01:28.844Z,44.63
2017-08-06T15:03:56.231Z,46.60
2017-08-06T15:06:23.647Z,49.51
2017-08-06T15:08:51.047Z,43.13
2017-08-06T15:11:18.464Z,41.06
2017-08-06T15:13:45.883Z,46.96
2017-08-06T15:16:13.293Z,42.00
2017-08-06T15:18:40.727Z,41.13
2017-08-06T15:21:08.122Z,38.01
2017-08-06T15:23:35.550Z,39.86
2017-08-06T15:26:02.959Z,38.61
2017-08-06T15:28:30.395Z,39.08
2017-08-06T15:30:57.806Z,38.80
2017-08-06T15:33:25.227Z,40.54
2017-08-06T15:35:52.622Z,39.03
2017-08-06T15:38:20.053Z,39.03
2017-08-06T15:40:47.443Z,38.30
2017-08-06T15:43:14.855Z,37.78
2017-08-06T15:45:42.263Z,40.89
2017-08-06T15:48:09.658Z,40.64
2017-08-06T15:50:37.107Z,37.88
2017-08-06T15:53:04.512Z,44.73
2017-08-06T15:55:31.915Z,47.60
2017-08-06T15:57:59.319Z,46.59
2017-08-06T16:00:26.727Z,50.23
2017-08-06T16:02:54.128Z,51.34
2017-08-06T16:05:21.523Z,49.11
2017-08-06T16:07:48.932Z,49.26
2017-08-06T16:10:16.333Z,46.43
2017-08-06T16:12:43.738Z,42.24
2017-08-06T16:15:11.143Z,43.97
2017-08-06T16:17:38.567Z,43.75
2017-08-06T16:20:05.964Z,42.90
2017-08-06T16:22:33.390Z,41.23
2017-08-06T16:25:01.305Z,41.74
2017-08-06T16:27:28.726Z,45.36
2017-08-06T16:29:56.140Z,40.61
2017-08-06T16:32:23.566Z,43.94
2017-08-06T16:34:50.991Z,45.18
2017-08-06T16:37:18.400Z,39.12
2017-08-06T16:39:45.804Z,41.53
2017-08-06T16:42:13.271Z,39.94
2017-08-06T16:44:40.668Z,42.58
2017-08-06T16:47:08.071Z,40.51
2017-08-06T16:49:35.472Z,40.79
2017-08-06T16:52:02.915Z,40.97
2017-08-06T16:54:30.314Z,42.09
2017-08-06T16:56:57.743Z,44.00
2017-08-06T16:59:25.159Z,40.08
2017-08-06T17:01:52.590Z,40.21
2017-08-06T17:04:19.993Z,43.56
2017-08-06T17:06:47.402Z,48.20
2017-08-06T17:09:14.841Z,49.85
2017-08-06T17:11:42.232Z,52.43
2017-08-06T17:14:09.639Z,49.78
2017-08-06T17:16:37.056Z,46.67
2017-08-06T17:19:04.458Z,49.42
2017-08-06T17:21:31.846Z,46.95
2017-08-06T17:23:59.278Z,48.58
2017-08-06T17:26:26.696Z,48.89
2017-08-06T17:28:54.137Z,45.71
2017-08-06T17:31:21.540Z,48.66
2017-08-06T17:33:48.972Z,51.33
2017-08-06T17:36:16.442Z,49.02
2017-08-06T17:38:43.831Z,43.06
2017-08-06T17:41:11.232Z,47.54
2017-08-06T17:43:38.627Z,49.95
2017-08-06T17:46:06.032Z,50.98
2017-08-06T17:48:33.448Z,50.18
2017-08-06T17:51:00.840Z,51.46
2017-08-06T17:53:28.235Z,52.97
2017-08-06T17:55:55.643Z,53.44
2017-08-06T17:58:23.034Z,53.59
2017-08-06T18:00:50.436Z,53.16
2017-08-06T18:03:17.834Z,53.78
2017-08-06T18:05:45.234Z,53.84
2017-08-06T18:08:12.632Z,54.41
2017-08-06T18:10:40.047Z,55.92
2017-08-06T18:13:07.443Z,56.46
2017-08-06T18:15:34.840Z,55.39
2017-08-06T18:18:02.243Z,56.18
2017-08-06T18:20:29.639Z,54.93
2017-08-06T18:22:57.053Z,54.44
2017-08-06T18:25:24.457Z,54.94
2017-08-06T18:27:51.863Z,55.37
2017-08-06T18:30:19.255Z,55.51
2017-08-06T18:32:46.659Z,56.79
2017-08-06T18:35:14.058Z,56.89
2017-08-06T18:37:41.468Z,57.12
2017-08-06T18:40:08.867Z,58.04
2017-08-06T18:42:36.275Z,58.27
2017-08-06T18:45:03.682Z,58.31
2017-08-06T18:47:31.096Z,58.30
2017-08-06T18:49:58.492Z,58.41
2017-08-06T18:52:25.895Z,59.09
2017-08-06T18:54:53.298Z,59.48
2017-08-06T18:57:20.711Z,59.66
2017-08-06T18:59:48.111Z,60.44
2017-08-06T19:02:15.511Z,60.92
2017-08-06T19:04:42.916Z,61.50
2017-08-06T19:07:10.319Z,61.48
2017-08-06T19:09:37.724Z,62.07
2017-08-06T19:12:05.144Z,63.15
2017-08-06T19:14:32.548Z,64.07
2017-08-06T19:16:59.962Z,64.89
2017-08-06T19:19:27.363Z,65.40
2017-08-06T19:21:54.787Z,65.54
2017-08-06T19:24:22.191Z,65.51
2017-08-06T19:26:49.592Z,65.46
2017-08-06T19:29:16.995Z,65.37
2017-08-06T19:31:44.407Z,65.23
2017-08-06T19:34:11.808Z,65.49
2017-08-06T19:36:39.216Z,66.00
2017-08-06T19:39:06.616Z,66.53
2017-08-06T19:41:34.026Z,66.42
2017-08-06T19:44:01.423Z,66.88
2017-08-06T19:46:28.828Z,66.63
2017-08-06T19:48:56.239Z,66.81
2017-08-06T19:51:23.644Z,64.87
2017-08-06T19:53:51.076Z,65.32
2017-08-06T19:56:18.481Z,64.89
2017-08-06T19:58:45.879Z,66.34
2017-08-06T20:01:13.284Z,66.76
2017-08-06T20:03:40.691Z,66.93
2017-08-06T20:06:08.098Z,66.81
2017-08-06T20:08:35.493Z,67.06
2017-08-06T20:11:02.905Z,67.02
2017-08-06T20:13:30.307Z,67.03
2017-08-06T20:15:57.719Z,64.72
2017-08-06T20:18:25.115Z,64.19
2017-08-06T20:20:52.527Z,66.09
2017-08-06T20:23:19.923Z,66.55
2017-08-06T20:25:47.334Z,66.49
2017-08-06T20:28:14.729Z,66.86
2017-08-06T20:30:42.134Z,67.25
2017-08-06T20:33:09.543Z,67.35
2017-08-06T20:35:36.956Z,64.96
2017-08-06T20:38:04.356Z,65.31
2017-08-06T20:40:31.767Z,64.52
2017-08-06T20:42:59.159Z,64.91
2017-08-06T20:45:26.571Z,64.08
2017-08-06T20:47:53.979Z,64.13
2017-08-06T20:50:21.401Z,64.55
2017-08-06T20:52:48.790Z,65.64
2017-08-06T20:55:16.196Z,66.05
2017-08-06T20:57:43.611Z,65.32
2017-08-06T21:00:11.012Z,65.27
2017-08-06T21:02:38.408Z,64.66
2017-08-06T21:05:05.812Z,64.49
2017-08-06T21:07:33.211Z,64.31
2017-08-06T21:10:00.620Z,64.19
2017-08-06T21:12:28.015Z,65.56
2017-08-06T21:14:55.429Z,66.04
2017-08-06T21:17:22.822Z,67.23
2017-08-06T21:19:50.221Z,65.50
2017-08-06T21:22:17.628Z,65.59
2017-08-06T21:24:45.031Z,66.44
2017-08-06T21:27:12.451Z,67.43
2017-08-06T21:29:39.857Z,65.98
2017-08-06T21:32:07.260Z,66.50
2017-08-06T21:34:34.668Z,65.75
2017-08-06T21:37:02.062Z,67.38
2017-08-06T21:39:29.471Z,67.09
2017-08-06T21:41:56.871Z,66.87
2017-08-06T21:44:24.283Z,66.82
2017-08-06T21:46:51.680Z,67.87
2017-08-06T21:49:19.095Z,67.30
2017-08-06T21:51:46.496Z,68.19
2017-08-06T21:54:13.903Z,68.92
2017-08-06T21:56:41.303Z,69.41
2017-08-06T21:59:08.703Z,69.62
2017-08-06T22:01:36.119Z,69.56
2017-08-06T22:04:03.511Z,70.01
2017-08-06T22:06:30.923Z,70.40
2017-08-06T22:08:58.332Z,70.36
2017-08-06T22:11:25.747Z,70.46
2017-08-06T22:13:53.144Z,71.16
2017-08-06T22:16:20.537Z,71.20
2017-08-06T22:18:47.951Z,71.42
2017-08-06T22:21:15.347Z,71.31
2017-08-06T22:23:42.770Z,71.40
2017-08-06T22:26:10.179Z,71.83
2017-08-06T22:28:37.574Z,71.76
2017-08-06T22:31:04.978Z,71.64
2017-08-06T22:33:32.387Z,71.53
2017-08-06T22:35:59.786Z,71.50
2017-08-06T22:38:27.191Z,71.37
2017-08-06T22:40:54.597Z,72.03
2017-08-06T22:43:21.994Z,71.79
2017-08-06T22:45:49.401Z,71.44
2017-08-06T22:48:16.797Z,71.42
2017-08-06T22:50:44.191Z,71.53
2017-08-06T22:53:11.595Z,71.72
2017-08-06T22:55:38.990Z,70.80
2017-08-06T22:58:06.402Z,71.01
2017-08-06T23:00:33.813Z,70.45
2017-08-06T23:03:01.211Z,70.39
2017-08-06T23:05:28.627Z,71.19
2017-08-06T23:07:56.028Z,70.53
2017-08-06T23:10:23.435Z,71.32
2017-08-06T23:12:50.835Z,71.73
2017-08-06T23:15:18.248Z,71.98
2017-08-06T23:17:45.642Z,72.01
2017-08-06T23:20:13.062Z,72.01
2017-08-06T23:22:40.468Z,72.24
2017-08-06T23:25:07.868Z,72.32
2017-08-06T23:27:35.272Z,72.45
2017-08-06T23:30:02.675Z,72.20
2017-08-06T23:32:30.091Z,72.24
2017-08-06T23:34:57.487Z,72.45
2017-08-06T23:37:24.883Z,71.16
2017-08-06T23:39:52.439Z,70.92
2017-08-06T23:42:19.836Z,69.98
2017-08-06T23:44:47.244Z,70.90
2017-08-06T23:47:14.648Z,71.79
2017-08-06T23:49:42.048Z,72.16
2017-08-06T23:52:09.456Z,72.55
2017-08-06T23:54:36.856Z,73.29
2017-08-06T23:57:04.271Z,73.63
2017-08-06T23:59:31.667Z,73.71
